M I D A S
Marine Information and Data Acquisition System
Tripno 314 of the Zeeleeuw from 2002-02-28 07:05:00 to 2002-02-28 17:03:23
Back to CruiseResearch ActivitiesStationsMapUnderway DataData graphs

EquipmentUnitsComment
TimeDGPSUTC
LatitudeDGPSDM.mWGS84
LongitudeDGPSDM.mWGS84
TemperatureSBE03/SBE38deg celciusITS90
ConductivitySBE21S/mITS90
SalinitySBE21 Practical Salinity Units
ChlorophylAChelsea fluorimeterg/lCalibrated in Aceton
Missing or incorrect values are displayed as -999
Sea surface data collected by the RV Zeeleeuw from 2002-02-28 07:05:00 to 2002-02-28 17:03:23
                                                                                    Next 1000 lines
Time Latitude Longitude Temperature Conductivity Salinity ChlorophylA
2002-02-28 07:05:06 51°13.686 2°55.906 -999 -999 -999  
2002-02-28 07:05:12 51°13.686 2°55.906 -999 -999 -999  
2002-02-28 07:05:17 51°13.686 2°55.905 -999 -999 -999  
2002-02-28 07:05:22 51°13.686 2°55.905 -999 -999 -999  
2002-02-28 07:05:27 51°13.686 2°55.905 -999 -999 -999  
2002-02-28 07:05:32 51°13.686 2°55.905 -999 -999 -999  
2002-02-28 07:05:37 51°13.686 2°55.905 -999 -999 -999  
2002-02-28 07:05:42 51°13.687 2°55.905 -999 -999 -999  
2002-02-28 07:05:47 51°13.687 2°55.905 -999 -999 -999  
2002-02-28 07:05:52 51°13.687 2°55.904 -999 -999 -999  
2002-02-28 07:05:57 51°13.688 2°55.902 -999 -999 -999  
2002-02-28 07:06:02 51°13.689 2°55.899 -999 -999 -999  
2002-02-28 07:06:07 51°13.69 2°55.894 -999 -999 -999  
2002-02-28 07:06:13 51°13.691 2°55.888 -999 -999 -999  
2002-02-28 07:06:18 51°13.692 2°55.881 -999 -999 -999  
2002-02-28 07:06:23 51°13.694 2°55.873 -999 -999 -999  
2002-02-28 07:06:28 51°13.695 2°55.865 -999 -999 -999  
2002-02-28 07:06:33 51°13.697 2°55.856 -999 -999 -999  
2002-02-28 07:06:38 51°13.698 2°55.848 -999 -999 -999  
2002-02-28 07:06:43 51°13.7 2°55.839 -999 -999 -999  
2002-02-28 07:06:48 51°13.701 2°55.831 -999 -999 -999  
2002-02-28 07:06:53 51°13.703 2°55.823 -999 -999 -999  
2002-02-28 07:06:58 51°13.704 2°55.815 -999 -999 -999  
2002-02-28 07:07:03 51°13.706 2°55.807 -999 -999 -999  
2002-02-28 07:07:07 51°13.707 2°55.801 -999 -999 -999  
2002-02-28 07:07:12 51°13.708 2°55.793 -999 -999 -999  
2002-02-28 07:07:17 51°13.709 2°55.785 -999 -999 -999  
2002-02-28 07:07:21 51°13.71 2°55.779 -999 -999 -999  
2002-02-28 07:07:26 51°13.711 2°55.771 -999 -999 -999  
2002-02-28 07:07:32 51°13.712 2°55.763 -999 -999 -999  
2002-02-28 07:07:37 51°13.713 2°55.756 -999 -999 -999  
2002-02-28 07:07:42 51°13.714 2°55.749 -999 -999 -999  
2002-02-28 07:07:47 51°13.714 2°55.743 -999 -999 -999  
2002-02-28 07:07:51 51°13.715 2°55.738 -999 -999 -999  
2002-02-28 07:07:57 51°13.715 2°55.732 -999 -999 -999  
2002-02-28 07:08:02 51°13.715 2°55.726 -999 -999 -999  
2002-02-28 07:08:07 51°13.716 2°55.721 -999 -999 -999  
2002-02-28 07:08:12 51°13.716 2°55.715 -999 -999 -999  
2002-02-28 07:08:18 51°13.716 2°55.71 -999 -999 -999  
2002-02-28 07:08:22 51°13.716 2°55.707 -999 -999 -999  
2002-02-28 07:08:28 51°13.718 2°55.705 -999 -999 -999  
2002-02-28 07:08:32 51°13.719 2°55.704 -999 -999 -999  
2002-02-28 07:08:37 51°13.722 2°55.704 -999 -999 -999  
2002-02-28 07:08:42 51°13.725 2°55.705 -999 -999 -999  
2002-02-28 07:08:47 51°13.729 2°55.705 -999 -999 -999  
2002-02-28 07:08:52 51°13.734 2°55.704 -999 -999 -999  
2002-02-28 07:08:57 51°13.74 2°55.702 -999 -999 -999  
2002-02-28 07:09:02 51°13.747 2°55.698 -999 -999 -999  
2002-02-28 07:09:07 51°13.755 2°55.693 -999 -999 -999  
2002-02-28 07:09:11 51°13.762 2°55.688 -999 -999 -999  
2002-02-28 07:09:17 51°13.773 2°55.678 -999 -999 -999  
2002-02-28 07:09:22 51°13.783 2°55.67 -999 -999 -999  
2002-02-28 07:09:27 51°13.794 2°55.661 -999 -999 -999  
2002-02-28 07:09:32 51°13.805 2°55.652 -999 -999 -999  
2002-02-28 07:09:37 51°13.817 2°55.643 -999 -999 -999  
2002-02-28 07:09:42 51°13.83 2°55.633 -999 -999 -999  
2002-02-28 07:09:47 51°13.842 2°55.624 -999 -999 -999  
2002-02-28 07:09:52 51°13.855 2°55.614 -999 -999 -999  
2002-02-28 07:09:57 51°13.869 2°55.604 -999 -999 -999  
2002-02-28 07:10:02 51°13.882 2°55.594 -999 -999 -999  
2002-02-28 07:10:07 51°13.896 2°55.583 -999 -999 -999  
2002-02-28 07:10:12 51°13.909 2°55.572 -999 -999 -999  
2002-02-28 07:10:17 51°13.923 2°55.561 -999 -999 -999  
2002-02-28 07:10:22 51°13.937 2°55.551 -999 -999 -999  
2002-02-28 07:10:28 51°13.953 2°55.538 -999 -999 -999  
2002-02-28 07:10:33 51°13.967 2°55.528 -999 -999 -999  
2002-02-28 07:10:37 51°13.978 2°55.521 -999 -999 -999  
2002-02-28 07:10:42 51°13.991 2°55.513 -999 -999 -999  
2002-02-28 07:10:47 51°14.003 2°55.504 -999 -999 -999  
2002-02-28 07:10:52 51°14.015 2°55.496 -999 -999 -999  
2002-02-28 07:10:57 51°14.027 2°55.488 -999 -999 -999  
2002-02-28 07:11:01 51°14.036 2°55.481 -999 -999 -999  
2002-02-28 07:11:07 51°14.049 2°55.472 -999 -999 -999  
2002-02-28 07:11:11 51°14.057 2°55.467 -999 -999 -999  
2002-02-28 07:11:17 51°14.069 2°55.458 -999 -999 -999  
2002-02-28 07:11:22 51°14.079 2°55.45 -999 -999 -999  
2002-02-28 07:11:27 51°14.089 2°55.443 -999 -999 -999  
2002-02-28 07:11:32 51°14.099 2°55.435 -999 -999 -999  
2002-02-28 07:11:37 51°14.108 2°55.427 -999 -999 -999  
2002-02-28 07:11:42 51°14.118 2°55.42 -999 -999 -999  
2002-02-28 07:11:47 51°14.128 2°55.412 -999 -999 -999  
2002-02-28 07:11:52 51°14.138 2°55.403 -999 -999 -999  
2002-02-28 07:11:57 51°14.148 2°55.395 -999 -999 -999  
2002-02-28 07:12:02 51°14.158 2°55.386 -999 -999 -999  
2002-02-28 07:12:06 51°14.166 2°55.378 -999 -999 -999  
2002-02-28 07:12:12 51°14.178 2°55.366 -999 -999 -999  
2002-02-28 07:12:17 51°14.189 2°55.356 -999 -999 -999  
2002-02-28 07:12:22 51°14.199 2°55.346 -999 -999 -999  
2002-02-28 07:12:27 51°14.208 2°55.335 -999 -999 -999  
2002-02-28 07:12:32 51°14.218 2°55.323 -999 -999 -999  
2002-02-28 07:12:37 51°14.227 2°55.311 -999 -999 -999  
2002-02-28 07:12:42 51°14.237 2°55.299 -999 -999 -999  
2002-02-28 07:12:47 51°14.246 2°55.286 -999 -999 -999  
2002-02-28 07:12:52 51°14.255 2°55.273 -999 -999 -999  
2002-02-28 07:12:57 51°14.264 2°55.26 -999 -999 -999  
2002-02-28 07:13:02 51°14.272 2°55.246 -999 -999 -999  
2002-02-28 07:13:07 51°14.281 2°55.231 -999 -999 -999  
2002-02-28 07:13:11 51°14.288 2°55.22 -999 -999 -999  
2002-02-28 07:13:17 51°14.298 2°55.203 -999 -999 -999  
2002-02-28 07:13:22 51°14.306 2°55.188 -999 -999 -999  
2002-02-28 07:13:27 51°14.314 2°55.172 -999 -999 -999  
2002-02-28 07:13:32 51°14.321 2°55.157 -999 -999 -999  
2002-02-28 07:13:37 51°14.329 2°55.142 -999 -999 -999  
2002-02-28 07:13:42 51°14.337 2°55.127 -999 -999 -999  
2002-02-28 07:13:47 51°14.345 2°55.111 -999 -999 -999  
2002-02-28 07:13:51 51°14.352 2°55.099 -999 -999 -999  
2002-02-28 07:13:57 51°14.362 2°55.081 -999 -999 -999  
2002-02-28 07:14:02 51°14.371 2°55.065 -999 -999 -999  
2002-02-28 07:14:07 51°14.38 2°55.05 -999 -999 -999  
2002-02-28 07:14:12 51°14.389 2°55.033 -999 -999 -999  
2002-02-28 07:14:17 51°14.398 2°55.016 -999 -999 -999  
2002-02-28 07:14:22 51°14.407 2°54.998 -999 -999 -999  
2002-02-28 07:14:27 51°14.416 2°54.979 -999 -999 -999  
2002-02-28 07:14:32 51°14.425 2°54.96 -999 -999 -999  
2002-02-28 07:14:37 51°14.434 2°54.941 -999 -999 -999  
2002-02-28 07:14:42 51°14.443 2°54.922 -999 -999 -999  
2002-02-28 07:14:47 51°14.452 2°54.902 -999 -999 -999  
2002-02-28 07:14:52 51°14.461 2°54.882 -999 -999 -999  
2002-02-28 07:14:57 51°14.47 2°54.861 -999 -999 -999  
2002-02-28 07:15:01 51°14.477 2°54.845 -999 -999 -999  
2002-02-28 07:15:06 51°14.486 2°54.824 -999 -999 -999  
2002-02-28 07:15:11 51°14.495 2°54.803 -999 -999 -999  
2002-02-28 07:15:17 51°14.505 2°54.777 -999 -999 -999  
2002-02-28 07:15:21 51°14.512 2°54.76 -999 -999 -999  
2002-02-28 07:15:27 51°14.523 2°54.734 -999 -999 -999  
2002-02-28 07:15:32 51°14.532 2°54.712 -999 -999 -999  
2002-02-28 07:15:37 51°14.541 2°54.69 -999 -999 -999  
2002-02-28 07:15:41 51°14.547 2°54.672 -999 -999 -999  
2002-02-28 07:15:47 51°14.558 2°54.644 -999 -999 -999  
2002-02-28 07:15:52 51°14.567 2°54.621 -999 -999 -999  
2002-02-28 07:15:57 51°14.575 2°54.597 -999 -999 -999  
2002-02-28 07:16:02 51°14.583 2°54.573 -999 -999 -999  
2002-02-28 07:16:07 51°14.592 2°54.548 -999 -999 -999  
2002-02-28 07:16:11 51°14.598 2°54.528 -999 -999 -999  
2002-02-28 07:16:17 51°14.609 2°54.498 -999 -999 -999  
2002-02-28 07:16:22 51°14.617 2°54.472 -999 -999 -999  
2002-02-28 07:16:27 51°14.627 2°54.447 -999 -999 -999  
2002-02-28 07:16:32 51°14.637 2°54.423 -999 -999 -999  
2002-02-28 07:16:37 51°14.649 2°54.399 -999 -999 -999  
2002-02-28 07:16:42 51°14.66 2°54.376 -999 -999 -999  
2002-02-28 07:16:47 51°14.672 2°54.353 -999 -999 -999  
2002-02-28 07:16:52 51°14.684 2°54.331 -999 -999 -999  
2002-02-28 07:16:57 51°14.697 2°54.309 -999 -999 -999  
2002-02-28 07:17:02 51°14.711 2°54.288 -999 -999 -999  
2002-02-28 07:17:07 51°14.724 2°54.268 -999 -999 -999  
2002-02-28 07:17:12 51°14.738 2°54.248 -999 -999 -999  
2002-02-28 07:17:17 51°14.753 2°54.229 -999 -999 -999  
2002-02-28 07:17:22 51°14.767 2°54.21 -999 -999 -999  
2002-02-28 07:17:27 51°14.782 2°54.192 -999 -999 -999  
2002-02-28 07:17:32 51°14.796 2°54.174 -999 -999 -999  
2002-02-28 07:17:37 51°14.812 2°54.157 -999 -999 -999  
2002-02-28 07:17:42 51°14.827 2°54.141 -999 -999 -999  
2002-02-28 07:17:47 51°14.843 2°54.126 -999 -999 -999  
2002-02-28 07:17:52 51°14.858 2°54.109 -999 -999 -999  
2002-02-28 07:17:57 51°14.874 2°54.095 -999 -999 -999  
2002-02-28 07:18:02 51°14.89 2°54.08 -999 -999 -999  
2002-02-28 07:18:07 51°14.906 2°54.067 -999 -999 -999  
2002-02-28 07:18:12 51°14.922 2°54.053 -999 -999 -999  
2002-02-28 07:18:17 51°14.938 2°54.042 -999 -999 -999  
2002-02-28 07:18:22 51°14.954 2°54.029 -999 -999 -999  
2002-02-28 07:18:27 51°14.971 2°54.018 -999 -999 -999  
2002-02-28 07:18:31 51°14.984 2°54.008 -999 -999 -999  
2002-02-28 07:18:37 51°15.003 2°53.993 -999 -999 -999  
2002-02-28 07:18:42 51°15.019 2°53.98 -999 -999 -999  
2002-02-28 07:18:47 51°15.035 2°53.966 -999 -999 -999  
2002-02-28 07:18:52 51°15.051 2°53.953 -999 -999 -999  
2002-02-28 07:18:57 51°15.067 2°53.938 -999 -999 -999  
2002-02-28 07:19:02 51°15.082 2°53.923 -999 -999 -999  
2002-02-28 07:19:07 51°15.097 2°53.907 -999 -999 -999  
2002-02-28 07:19:11 51°15.11 2°53.895 -999 -999 -999  
2002-02-28 07:19:17 51°15.129 2°53.877 -999 -999 -999  
2002-02-28 07:19:21 51°15.141 2°53.863 -999 -999 -999  
2002-02-28 07:19:27 51°15.159 2°53.847 -999 -999 -999  
2002-02-28 07:19:32 51°15.174 2°53.831 -999 -999 -999  
2002-02-28 07:19:37 51°15.191 2°53.817 -999 -999 -999  
2002-02-28 07:19:42 51°15.206 2°53.801 -999 -999 -999  
2002-02-28 07:19:47 51°15.222 2°53.787 -999 -999 -999  
2002-02-28 07:19:51 51°15.235 2°53.775 -999 -999 -999  
2002-02-28 07:19:57 51°15.254 2°53.758 -999 -999 -999  
2002-02-28 07:20:02 51°15.27 2°53.743 -999 -999 -999  
2002-02-28 07:20:07 51°15.287 2°53.73 -999 -999 -999  
2002-02-28 07:20:12 51°15.303 2°53.717 -999 -999 -999  
2002-02-28 07:20:17 51°15.32 2°53.705 -999 -999 -999  
2002-02-28 07:20:22 51°15.337 2°53.694 -999 -999 -999  
2002-02-28 07:20:27 51°15.355 2°53.682 -999 -999 -999  
2002-02-28 07:20:32 51°15.372 2°53.67 -999 -999 -999  
2002-02-28 07:20:37 51°15.389 2°53.658 -999 -999 -999  
2002-02-28 07:20:42 51°15.406 2°53.644 -999 -999 -999  
2002-02-28 07:20:47 51°15.423 2°53.632 -999 -999 -999  
2002-02-28 07:20:52 51°15.44 2°53.618 -999 -999 -999  
2002-02-28 07:20:57 51°15.456 2°53.606 -999 -999 -999  
2002-02-28 07:21:02 51°15.473 2°53.592 -999 -999 -999  
2002-02-28 07:21:07 51°15.491 2°53.58 -999 -999 -999  
2002-02-28 07:21:12 51°15.508 2°53.567 -999 -999 -999  
2002-02-28 07:21:17 51°15.525 2°53.556 -999 -999 -999  
2002-02-28 07:21:22 51°15.542 2°53.542 -999 -999 -999  
2002-02-28 07:21:27 51°15.56 2°53.531 -999 -999 -999  
2002-02-28 07:21:32 51°15.577 2°53.517 -999 -999 -999  
2002-02-28 07:21:37 51°15.594 2°53.506 -999 -999 -999  
2002-02-28 07:21:42 51°15.611 2°53.493 -999 -999 -999  
2002-02-28 07:21:47 51°15.629 2°53.481 -999 -999 -999  
2002-02-28 07:21:52 51°15.646 2°53.468 -999 -999 -999  
2002-02-28 07:21:57 51°15.663 2°53.456 -999 -999 -999  
2002-02-28 07:22:02 51°15.681 2°53.444 -999 -999 -999  
2002-02-28 07:22:07 51°15.698 2°53.432 -999 -999 -999  
2002-02-28 07:22:12 51°15.715 2°53.419 -999 -999 -999  
2002-02-28 07:22:17 51°15.732 2°53.405 -999 -999 -999  
2002-02-28 07:22:22 51°15.749 2°53.393 -999 -999 -999  
2002-02-28 07:22:27 51°15.766 2°53.38 -999 -999 -999  
2002-02-28 07:22:31 51°15.78 2°53.371 -999 -999 -999  
2002-02-28 07:22:37 51°15.8 2°53.354 -999 -999 -999  
2002-02-28 07:22:42 51°15.817 2°53.342 -999 -999 -999  
2002-02-28 07:22:47 51°15.834 2°53.328 -999 -999 -999  
2002-02-28 07:22:52 51°15.852 2°53.317 -999 -999 -999  
2002-02-28 07:22:57 51°15.869 2°53.304 -999 -999 -999  
2002-02-28 07:23:02 51°15.886 2°53.292 -999 -999 -999  
2002-02-28 07:23:07 51°15.903 2°53.279 -999 -999 -999  
2002-02-28 07:23:12 51°15.919 2°53.266 -999 -999 -999  
2002-02-28 07:23:17 51°15.936 2°53.253 -999 -999 -999  
2002-02-28 07:23:22 51°15.953 2°53.24 -999 -999 -999  
2002-02-28 07:23:27 51°15.969 2°53.227 -999 -999 -999  
2002-02-28 07:23:32 51°15.986 2°53.213 -999 -999 -999  
2002-02-28 07:23:37 51°16.003 2°53.2 -999 -999 -999  
2002-02-28 07:23:42 51°16.019 2°53.186 -999 -999 -999  
2002-02-28 07:23:47 51°16.037 2°53.175 -999 -999 -999  
2002-02-28 07:23:52 51°16.054 2°53.162 -999 -999 -999  
2002-02-28 07:23:57 51°16.071 2°53.152 -999 -999 -999  
2002-02-28 07:24:02 51°16.088 2°53.139 -999 -999 -999  
2002-02-28 07:24:07 51°16.105 2°53.129 -999 -999 -999  
2002-02-28 07:24:12 51°16.122 2°53.117 -999 -999 -999  
2002-02-28 07:24:17 51°16.14 2°53.106 -999 -999 -999  
2002-02-28 07:24:22 51°16.156 2°53.093 -999 -999 -999  
2002-02-28 07:24:27 51°16.174 2°53.082 -999 -999 -999  
2002-02-28 07:24:32 51°16.191 2°53.07 -999 -999 -999  
2002-02-28 07:24:37 51°16.208 2°53.061 -999 -999 -999  
2002-02-28 07:24:42 51°16.225 2°53.048 -999 -999 -999  
2002-02-28 07:24:47 51°16.242 2°53.038 -999 -999 -999  
2002-02-28 07:24:52 51°16.259 2°53.026 -999 -999 -999  
2002-02-28 07:24:57 51°16.276 2°53.015 -999 -999 -999  
2002-02-28 07:25:02 51°16.293 2°53.004 -999 -999 -999  
2002-02-28 07:25:07 51°16.31 2°52.992 -999 -999 -999  
2002-02-28 07:25:12 51°16.327 2°52.981 -999 -999 -999  
2002-02-28 07:25:17 51°16.344 2°52.969 -999 -999 -999  
2002-02-28 07:25:22 51°16.361 2°52.958 -999 -999 -999  
2002-02-28 07:25:27 51°16.378 2°52.945 -999 -999 -999  
2002-02-28 07:25:32 51°16.395 2°52.935 -999 -999 -999  
2002-02-28 07:25:37 51°16.412 2°52.923 -999 -999 -999  
2002-02-28 07:25:42 51°16.43 2°52.913 -999 -999 -999  
2002-02-28 07:25:47 51°16.446 2°52.901 -999 -999 -999  
2002-02-28 07:25:52 51°16.464 2°52.891 -999 -999 -999  
2002-02-28 07:25:57 51°16.481 2°52.879 -999 -999 -999  
2002-02-28 07:26:02 51°16.498 2°52.869 -999 -999 -999  
2002-02-28 07:26:07 51°16.515 2°52.857 -999 -999 -999  
2002-02-28 07:26:12 51°16.532 2°52.848 -999 -999 -999  
2002-02-28 07:26:17 51°16.549 2°52.836 -999 -999 -999  
2002-02-28 07:26:22 51°16.566 2°52.826 -999 -999 -999  
2002-02-28 07:26:27 51°16.583 2°52.814 -999 -999 -999  
2002-02-28 07:26:32 51°16.6 2°52.804 -999 -999 -999  
2002-02-28 07:26:37 51°16.617 2°52.793 -999 -999 -999  
2002-02-28 07:26:42 51°16.634 2°52.781 -999 -999 -999  
2002-02-28 07:26:47 51°16.65 2°52.771 -999 -999 -999  
2002-02-28 07:26:52 51°16.667 2°52.759 -999 -999 -999  
2002-02-28 07:26:57 51°16.684 2°52.749 -999 -999 -999  
2002-02-28 07:27:02 51°16.701 2°52.737 -999 -999 -999  
2002-02-28 07:27:07 51°16.718 2°52.728 -999 -999 -999  
2002-02-28 07:27:12 51°16.735 2°52.717 -999 -999 -999  
2002-02-28 07:27:17 51°16.752 2°52.708 -999 -999 -999  
2002-02-28 07:27:22 51°16.769 2°52.697 -999 -999 -999  
2002-02-28 07:27:27 51°16.785 2°52.687 -999 -999 -999  
2002-02-28 07:27:32 51°16.802 2°52.677 -999 -999 -999  
2002-02-28 07:27:37 51°16.818 2°52.667 -999 -999 -999  
2002-02-28 07:27:42 51°16.834 2°52.656 -999 -999 -999  
2002-02-28 07:27:47 51°16.851 2°52.647 -999 -999 -999  
2002-02-28 07:27:52 51°16.868 2°52.636 -999 -999 -999  
2002-02-28 07:27:57 51°16.884 2°52.627 -999 -999 -999  
2002-02-28 07:28:02 51°16.901 2°52.616 -999 -999 -999  
2002-02-28 07:28:07 51°16.917 2°52.606 -999 -999 -999  
2002-02-28 07:28:12 51°16.934 2°52.596 -999 -999 -999  
2002-02-28 07:28:17 51°16.95 2°52.585 -999 -999 -999  
2002-02-28 07:28:22 51°16.967 2°52.575 -999 -999 -999  
2002-02-28 07:28:27 51°16.984 2°52.565 -999 -999 -999  
2002-02-28 07:28:32 51°17.001 2°52.555 -999 -999 -999  
2002-02-28 07:28:37 51°17.018 2°52.545 -999 -999 -999  
2002-02-28 07:28:42 51°17.034 2°52.534 -999 -999 -999  
2002-02-28 07:28:46 51°17.048 2°52.527 -999 -999 -999  
2002-02-28 07:28:52 51°17.067 2°52.513 -999 -999 -999  
2002-02-28 07:28:57 51°17.083 2°52.503 -999 -999 -999  
2002-02-28 07:29:02 51°17.1 2°52.493 -999 -999 -999  
2002-02-28 07:29:07 51°17.116 2°52.481 -999 -999 -999  
2002-02-28 07:29:11 51°17.13 2°52.474 -999 -999 -999  
2002-02-28 07:29:17 51°17.15 2°52.46 -999 -999 -999  
2002-02-28 07:29:22 51°17.167 2°52.452 -999 -999 -999  
2002-02-28 07:29:27 51°17.183 2°52.44 -999 -999 -999  
2002-02-28 07:29:32 51°17.2 2°52.431 -999 -999 -999  
2002-02-28 07:29:37 51°17.217 2°52.42 -999 -999 -999  
2002-02-28 07:29:42 51°17.234 2°52.41 -999 -999 -999  
2002-02-28 07:29:47 51°17.251 2°52.4 -999 -999 -999  
2002-02-28 07:29:52 51°17.268 2°52.389 -999 -999 -999  
2002-02-28 07:29:57 51°17.284 2°52.378 -999 -999 -999  
2002-02-28 07:30:02 51°17.301 2°52.368 -999 -999 -999  
2002-02-28 07:30:07 51°17.318 2°52.356 -999 -999 -999  
2002-02-28 07:30:12 51°17.334 2°52.344 -999 -999 -999  
2002-02-28 07:30:17 51°17.351 2°52.33 -999 -999 -999  
2002-02-28 07:30:22 51°17.366 2°52.316 -999 -999 -999  
2002-02-28 07:30:27 51°17.382 2°52.302 -999 -999 -999  
2002-02-28 07:30:32 51°17.398 2°52.287 -999 -999 -999  
2002-02-28 07:30:37 51°17.414 2°52.272 -999 -999 -999  
2002-02-28 07:30:41 51°17.426 2°52.26 -999 -999 -999  
2002-02-28 07:30:46 51°17.442 2°52.245 -999 -999 -999  
2002-02-28 07:30:52 51°17.461 2°52.227 -999 -999 -999  
2002-02-28 07:30:57 51°17.476 2°52.211 -999 -999 -999  
2002-02-28 07:31:02 51°17.491 2°52.195 -999 -999 -999  
2002-02-28 07:31:07 51°17.507 2°52.18 -999 -999 -999  
2002-02-28 07:31:12 51°17.522 2°52.163 -999 -999 -999  
2002-02-28 07:31:17 51°17.537 2°52.148 -999 -999 -999  
2002-02-28 07:31:22 51°17.552 2°52.131 -999 -999 -999  
2002-02-28 07:31:27 51°17.567 2°52.114 -999 -999 -999  
2002-02-28 07:31:32 51°17.582 2°52.097 -999 -999 -999  
2002-02-28 07:31:38 51°17.6 2°52.077 -999 -999 -999  
2002-02-28 07:31:42 51°17.612 2°52.062 -999 -999 -999  
2002-02-28 07:31:47 51°17.627 2°52.046 -999 -999 -999  
2002-02-28 07:31:52 51°17.641 2°52.029 -999 -999 -999  
2002-02-28 07:31:57 51°17.656 2°52.013 -999 -999 -999  
2002-02-28 07:32:02 51°17.671 2°51.996 -999 -999 -999  
2002-02-28 07:32:07 51°17.686 2°51.98 -999 -999 -999  
2002-02-28 07:32:12 51°17.701 2°51.963 -999 -999 -999  
2002-02-28 07:32:17 51°17.716 2°51.947 -999 -999 -999  
2002-02-28 07:32:22 51°17.73 2°51.93 -999 -999 -999  
2002-02-28 07:32:27 51°17.745 2°51.913 -999 -999 -999  
2002-02-28 07:32:31 51°17.757 2°51.901 -999 -999 -999  
2002-02-28 07:32:37 51°17.775 2°51.881 -999 -999 -999  
2002-02-28 07:32:42 51°17.79 2°51.864 -999 -999 -999  
2002-02-28 07:32:47 51°17.804 2°51.846 -999 -999 -999  
2002-02-28 07:32:52 51°17.817 2°51.828 -999 -999 -999  
2002-02-28 07:32:57 51°17.83 2°51.808 -999 -999 -999  
2002-02-28 07:33:02 51°17.843 2°51.788 -999 -999 -999  
2002-02-28 07:33:07 51°17.855 2°51.767 -999 -999 -999  
2002-02-28 07:33:12 51°17.867 2°51.745 -999 -999 -999  
2002-02-28 07:33:17 51°17.878 2°51.722 -999 -999 -999  
2002-02-28 07:33:22 51°17.889 2°51.699 -999 -999 -999  
2002-02-28 07:33:27 51°17.898 2°51.674 -999 -999 -999  
2002-02-28 07:33:32 51°17.907 2°51.648 -999 -999 -999  
2002-02-28 07:33:37 51°17.914 2°51.622 -999 -999 -999  
2002-02-28 07:33:42 51°17.921 2°51.595 -999 -999 -999  
2002-02-28 07:33:47 51°17.927 2°51.567 -999 -999 -999  
2002-02-28 07:33:52 51°17.934 2°51.539 -999 -999 -999  
2002-02-28 07:33:57 51°17.94 2°51.512 -999 -999 -999  
2002-02-28 07:34:02 51°17.946 2°51.483 -999 -999 -999  
2002-02-28 07:34:07 51°17.952 2°51.455 -999 -999 -999  
2002-02-28 07:34:12 51°17.959 2°51.428 -999 -999 -999  
2002-02-28 07:34:17 51°17.965 2°51.4 -999 -999 -999  
2002-02-28 07:34:22 51°17.973 2°51.372 -999 -999 -999  
2002-02-28 07:34:27 51°17.98 2°51.345 -999 -999 -999  
2002-02-28 07:34:32 51°17.988 2°51.318 -999 -999 -999  
2002-02-28 07:34:37 51°17.995 2°51.291 -999 -999 -999  
2002-02-28 07:34:42 51°18.004 2°51.264 -999 -999 -999  
2002-02-28 07:34:47 51°18.012 2°51.237 -999 -999 -999  
2002-02-28 07:34:52 51°18.021 2°51.21 -999 -999 -999  
2002-02-28 07:34:57 51°18.029 2°51.184 -999 -999 -999  
2002-02-28 07:35:02 51°18.037 2°51.157 -999 -999 -999  
2002-02-28 07:35:07 51°18.046 2°51.13 -999 -999 -999  
2002-02-28 07:35:12 51°18.054 2°51.103 -999 -999 -999  
2002-02-28 07:35:17 51°18.061 2°51.076 -999 -999 -999  
2002-02-28 07:35:21 51°18.068 2°51.054 -999 -999 -999  
2002-02-28 07:35:27 51°18.076 2°51.021 -999 -999 -999  
2002-02-28 07:35:32 51°18.083 2°50.993 -999 -999 -999  
2002-02-28 07:35:37 51°18.089 2°50.965 -999 -999 -999  
2002-02-28 07:35:42 51°18.095 2°50.936 -999 -999 -999  
2002-02-28 07:35:47 51°18.101 2°50.908 -999 -999 -999  
2002-02-28 07:35:52 51°18.106 2°50.879 -999 -999 -999  
2002-02-28 07:35:57 51°18.112 2°50.851 -999 -999 -999  
2002-02-28 07:36:01 51°18.116 2°50.828 -999 -999 -999  
2002-02-28 07:36:07 51°18.122 2°50.793 -999 -999 -999  
2002-02-28 07:36:12 51°18.128 2°50.764 -999 -999 -999  
2002-02-28 07:36:17 51°18.133 2°50.736 -999 -999 -999  
2002-02-28 07:36:22 51°18.139 2°50.707 -999 -999 -999  
2002-02-28 07:36:27 51°18.144 2°50.678 -999 -999 -999  
2002-02-28 07:36:32 51°18.15 2°50.649 -999 -999 -999  
2002-02-28 07:36:37 51°18.156 2°50.622 -999 -999 -999  
2002-02-28 07:36:42 51°18.162 2°50.594 -999 -999 -999  
2002-02-28 07:36:47 51°18.168 2°50.566 -999 -999 -999  
2002-02-28 07:36:52 51°18.174 2°50.537 -999 -999 -999  
2002-02-28 07:36:57 51°18.18 2°50.509 -999 -999 -999  
2002-02-28 07:37:02 51°18.186 2°50.481 -999 -999 -999  
2002-02-28 07:37:06 51°18.191 2°50.459 -999 -999 -999  
2002-02-28 07:37:11 51°18.198 2°50.431 -999 -999 -999  
2002-02-28 07:37:17 51°18.204 2°50.397 -999 -999 -999  
2002-02-28 07:37:22 51°18.21 2°50.368 -999 -999 -999  
2002-02-28 07:37:27 51°18.215 2°50.34 -999 -999 -999  
2002-02-28 07:37:32 51°18.221 2°50.312 -999 -999 -999  
2002-02-28 07:37:37 51°18.227 2°50.284 -999 -999 -999  
2002-02-28 07:37:42 51°18.234 2°50.257 -999 -999 -999  
2002-02-28 07:37:47 51°18.24 2°50.232 -999 -999 -999  
2002-02-28 07:37:52 51°18.246 2°50.21 -999 -999 -999  
2002-02-28 07:37:57 51°18.251 2°50.188 -999 -999 -999  
2002-02-28 07:38:02 51°18.255 2°50.168 -999 -999 -999  
2002-02-28 07:38:07 51°18.258 2°50.148 -999 -999 -999  
2002-02-28 07:38:12 51°18.261 2°50.13 -999 -999 -999  
2002-02-28 07:38:17 51°18.263 2°50.113 -999 -999 -999  
2002-02-28 07:38:22 51°18.266 2°50.097 -999 -999 -999  
2002-02-28 07:38:27 51°18.268 2°50.082 -999 -999 -999  
2002-02-28 07:38:32 51°18.27 2°50.067 -999 -999 -999  
2002-02-28 07:38:37 51°18.272 2°50.053 -999 -999 -999  
2002-02-28 07:38:42 51°18.274 2°50.039 -999 -999 -999  
2002-02-28 07:38:47 51°18.277 2°50.027 -999 -999 -999  
2002-02-28 07:38:52 51°18.278 2°50.015 -999 -999 -999  
2002-02-28 07:38:57 51°18.281 2°50.004 -999 -999 -999  
2002-02-28 07:39:02 51°18.282 2°49.993 -999 -999 -999  
2002-02-28 07:39:07 51°18.284 2°49.983 -999 -999 -999  
2002-02-28 07:39:12 51°18.286 2°49.973 -999 -999 -999  
2002-02-28 07:39:18 51°18.287 2°49.962 -999 -999 -999  
2002-02-28 07:39:22 51°18.288 2°49.954 -999 -999 -999  
2002-02-28 07:39:27 51°18.289 2°49.946 -999 -999 -999  
2002-02-28 07:39:32 51°18.289 2°49.937 -999 -999 -999  
2002-02-28 07:39:37 51°18.29 2°49.929 -999 -999 -999  
2002-02-28 07:39:42 51°18.29 2°49.921 -999 -999 -999  
2002-02-28 07:39:47 51°18.29 2°49.913 -999 -999 -999  
2002-02-28 07:39:52 51°18.29 2°49.906 -999 -999 -999  
2002-02-28 07:39:57 51°18.29 2°49.899 -999 -999 -999  
2002-02-28 07:40:02 51°18.29 2°49.892 -999 -999 -999  
2002-02-28 07:40:07 51°18.29 2°49.884 -999 -999 -999  
2002-02-28 07:40:12 51°18.289 2°49.877 -999 -999 -999  
2002-02-28 07:40:17 51°18.288 2°49.87 -999 -999 -999  
2002-02-28 07:40:22 51°18.288 2°49.863 -999 -999 -999  
2002-02-28 07:40:27 51°18.287 2°49.857 -999 -999 -999  
2002-02-28 07:40:32 51°18.287 2°49.851 -999 -999 -999  
2002-02-28 07:40:37 51°18.286 2°49.845 -999 -999 -999  
2002-02-28 07:40:42 51°18.286 2°49.842 -999 -999 -999  
2002-02-28 07:40:47 51°18.286 2°49.839 -999 -999 -999  
2002-02-28 07:40:52 51°18.286 2°49.837 -999 -999 -999  
2002-02-28 07:40:57 51°18.286 2°49.836 -999 -999 -999  
2002-02-28 07:41:02 51°18.286 2°49.836 -999 -999 -999  
2002-02-28 07:41:07 51°18.287 2°49.835 -999 -999 -999  
2002-02-28 07:41:12 51°18.287 2°49.834 -999 -999 -999  
2002-02-28 07:41:17 51°18.288 2°49.834 -999 -999 -999  
2002-02-28 07:41:21 51°18.288 2°49.834 -999 -999 -999  
2002-02-28 07:41:27 51°18.288 2°49.834 -999 -999 -999  
2002-02-28 07:41:32 51°18.288 2°49.834 -999 -999 -999  
2002-02-28 07:41:38 51°18.289 2°49.834 -999 -999 -999  
2002-02-28 07:41:43 51°18.289 2°49.834 -999 -999 -999  
2002-02-28 07:41:48 51°18.289 2°49.834 -999 -999 -999  
2002-02-28 07:41:52 51°18.289 2°49.835 -999 -999 -999  
2002-02-28 07:41:57 51°18.289 2°49.836 -999 -999 -999  
2002-02-28 07:42:02 51°18.289 2°49.836 -999 -999 -999  
2002-02-28 07:42:07 51°18.289 2°49.837 -999 -999 -999  
2002-02-28 07:42:12 51°18.289 2°49.837 -999 -999 -999  
2002-02-28 07:42:17 51°18.288 2°49.838 -999 -999 -999  
2002-02-28 07:42:22 51°18.288 2°49.839 -999 -999 -999  
2002-02-28 07:42:27 51°18.288 2°49.84 -999 -999 -999  
2002-02-28 07:42:32 51°18.287 2°49.841 -999 -999 -999  
2002-02-28 07:42:37 51°18.287 2°49.842 -999 -999 -999  
2002-02-28 07:42:42 51°18.287 2°49.842 -999 -999 -999  
2002-02-28 07:42:47 51°18.286 2°49.843 -999 -999 -999  
2002-02-28 07:42:52 51°18.285 2°49.844 -999 -999 -999  
2002-02-28 07:42:57 51°18.285 2°49.845 -999 -999 -999  
2002-02-28 07:43:02 51°18.284 2°49.845 -999 -999 -999  
2002-02-28 07:43:07 51°18.284 2°49.845 -999 -999 -999  
2002-02-28 07:43:11 51°18.284 2°49.846 -999 -999 -999  
2002-02-28 07:43:17 51°18.284 2°49.846 -999 -999 -999  
2002-02-28 07:43:22 51°18.283 2°49.846 -999 -999 -999  
2002-02-28 07:43:26 51°18.283 2°49.847 -999 -999 -999  
2002-02-28 07:43:32 51°18.283 2°49.847 -999 -999 -999  
2002-02-28 07:43:37 51°18.282 2°49.847 -999 -999 -999  
2002-02-28 07:43:42 51°18.282 2°49.847 -999 -999 -999  
2002-02-28 07:43:47 51°18.282 2°49.848 -999 -999 -999  
2002-02-28 07:43:52 51°18.282 2°49.848 -999 -999 -999  
2002-02-28 07:43:57 51°18.282 2°49.848 -999 -999 -999  
2002-02-28 07:44:02 51°18.281 2°49.849 -999 -999 -999  
2002-02-28 07:44:07 51°18.281 2°49.849 -999 -999 -999  
2002-02-28 07:44:12 51°18.281 2°49.849 -999 -999 -999  
2002-02-28 07:44:17 51°18.281 2°49.849 -999 -999 -999  
2002-02-28 07:44:22 51°18.281 2°49.85 -999 -999 -999  
2002-02-28 07:44:27 51°18.281 2°49.85 -999 -999 -999  
2002-02-28 07:44:32 51°18.281 2°49.85 -999 -999 -999  
2002-02-28 07:44:37 51°18.281 2°49.851 -999 -999 -999  
2002-02-28 07:44:42 51°18.28 2°49.85 -999 -999 -999  
2002-02-28 07:44:47 51°18.28 2°49.851 -999 -999 -999  
2002-02-28 07:44:52 51°18.28 2°49.851 -999 -999 -999  
2002-02-28 07:44:57 51°18.28 2°49.851 -999 -999 -999  
2002-02-28 07:45:02 51°18.28 2°49.851 -999 -999 -999  
2002-02-28 07:45:07 51°18.28 2°49.851 -999 -999 -999  
2002-02-28 07:45:12 51°18.28 2°49.85 -999 -999 -999  
2002-02-28 07:45:17 51°18.28 2°49.85 -999 -999 -999  
2002-02-28 07:45:22 51°18.28 2°49.85 -999 -999 -999  
2002-02-28 07:45:27 51°18.28 2°49.85 -999 -999 -999  
2002-02-28 07:45:32 51°18.28 2°49.85 -999 -999 -999  
2002-02-28 07:45:37 51°18.279 2°49.85 -999 -999 -999  
2002-02-28 07:45:42 51°18.279 2°49.851 -999 -999 -999  
2002-02-28 07:45:47 51°18.279 2°49.851 -999 -999 -999  
2002-02-28 07:45:52 51°18.279 2°49.852 -999 -999 -999  
2002-02-28 07:45:57 51°18.278 2°49.853 -999 -999 -999  
2002-02-28 07:46:02 51°18.278 2°49.853 -999 -999 -999  
2002-02-28 07:46:07 51°18.277 2°49.854 -999 -999 -999  
2002-02-28 07:46:12 51°18.277 2°49.855 -999 -999 -999  
2002-02-28 07:46:17 51°18.276 2°49.856 -999 -999 -999  
2002-02-28 07:46:22 51°18.276 2°49.857 -999 -999 -999  
2002-02-28 07:46:27 51°18.275 2°49.858 -999 -999 -999  
2002-02-28 07:46:32 51°18.274 2°49.859 -999 -999 -999  
2002-02-28 07:46:37 51°18.273 2°49.86 -999 -999 -999  
2002-02-28 07:46:42 51°18.272 2°49.86 -999 -999 -999  
2002-02-28 07:46:47 51°18.272 2°49.862 -999 -999 -999  
2002-02-28 07:46:52 51°18.271 2°49.862 -999 -999 -999  
2002-02-28 07:46:57 51°18.27 2°49.863 -999 -999 -999  
2002-02-28 07:47:02 51°18.27 2°49.864 -999 -999 -999  
2002-02-28 07:47:07 51°18.27 2°49.864 -999 -999 -999  
2002-02-28 07:47:12 51°18.27 2°49.864 -999 -999 -999  
2002-02-28 07:47:18 51°18.269 2°49.864 -999 -999 -999  
2002-02-28 07:47:22 51°18.27 2°49.865 -999 -999 -999  
2002-02-28 07:47:27 51°18.27 2°49.864 -999 -999 -999  
2002-02-28 07:47:32 51°18.27 2°49.864 -999 -999 -999  
2002-02-28 07:47:37 51°18.27 2°49.864 -999 -999 -999  
2002-02-28 07:47:42 51°18.27 2°49.863 -999 -999 -999  
2002-02-28 07:47:47 51°18.27 2°49.863 -999 -999 -999  
2002-02-28 07:47:52 51°18.27 2°49.863 -999 -999 -999  
2002-02-28 07:47:57 51°18.27 2°49.862 -999 -999 -999  
2002-02-28 07:48:02 51°18.271 2°49.862 -999 -999 -999  
2002-02-28 07:48:07 51°18.27 2°49.862 -999 -999 -999  
2002-02-28 07:48:12 51°18.27 2°49.862 -999 -999 -999  
2002-02-28 07:48:17 51°18.271 2°49.862 -999 -999 -999  
2002-02-28 07:48:22 51°18.271 2°49.861 -999 -999 -999  
2002-02-28 07:48:27 51°18.271 2°49.861 -999 -999 -999  
2002-02-28 07:48:31 51°18.271 2°49.861 -999 -999 -999  
2002-02-28 07:48:37 51°18.271 2°49.861 -999 -999 -999  
2002-02-28 07:48:42 51°18.272 2°49.86 -999 -999 -999  
2002-02-28 07:48:47 51°18.272 2°49.86 -999 -999 -999  
2002-02-28 07:48:52 51°18.272 2°49.859 -999 -999 -999  
2002-02-28 07:48:57 51°18.272 2°49.859 -999 -999 -999  
2002-02-28 07:49:02 51°18.272 2°49.859 -999 -999 -999  
2002-02-28 07:49:07 51°18.272 2°49.858 -999 -999 -999  
2002-02-28 07:49:12 51°18.272 2°49.858 -999 -999 -999  
2002-02-28 07:49:17 51°18.272 2°49.857 -999 -999 -999  
2002-02-28 07:49:22 51°18.272 2°49.857 -999 -999 -999  
2002-02-28 07:49:27 51°18.273 2°49.857 -999 -999 -999  
2002-02-28 07:49:32 51°18.273 2°49.856 -999 -999 -999  
2002-02-28 07:49:37 51°18.273 2°49.856 -999 -999 -999  
2002-02-28 07:49:42 51°18.273 2°49.856 -999 -999 -999  
2002-02-28 07:49:47 51°18.273 2°49.856 -999 -999 -999  
2002-02-28 07:49:52 51°18.273 2°49.856 -999 -999 -999  
2002-02-28 07:49:57 51°18.274 2°49.856 -999 -999 -999  
2002-02-28 07:50:02 51°18.274 2°49.856 -999 -999 -999  
2002-02-28 07:50:07 51°18.274 2°49.856 -999 -999 -999  
2002-02-28 07:50:12 51°18.274 2°49.855 -999 -999 -999  
2002-02-28 07:50:17 51°18.275 2°49.855 -999 -999 -999  
2002-02-28 07:50:22 51°18.275 2°49.855 -999 -999 -999  
2002-02-28 07:50:27 51°18.275 2°49.854 -999 -999 -999  
2002-02-28 07:50:32 51°18.275 2°49.854 -999 -999 -999  
2002-02-28 07:50:37 51°18.276 2°49.854 -999 -999 -999  
2002-02-28 07:50:42 51°18.276 2°49.854 -999 -999 -999  
2002-02-28 07:50:47 51°18.276 2°49.854 -999 -999 -999  
2002-02-28 07:50:52 51°18.276 2°49.854 -999 -999 -999  
2002-02-28 07:50:57 51°18.276 2°49.854 -999 -999 -999  
2002-02-28 07:51:02 51°18.276 2°49.854 -999 -999 -999  
2002-02-28 07:51:07 51°18.276 2°49.854 -999 -999 -999  
2002-02-28 07:51:12 51°18.275 2°49.854 -999 -999 -999  
2002-02-28 07:51:17 51°18.275 2°49.854 -999 -999 -999  
2002-02-28 07:51:22 51°18.275 2°49.854 -999 -999 -999  
2002-02-28 07:51:27 51°18.275 2°49.854 -999 -999 -999  
2002-02-28 07:51:32 51°18.275 2°49.853 -999 -999 -999  
2002-02-28 07:51:37 51°18.275 2°49.853 -999 -999 -999  
2002-02-28 07:51:42 51°18.275 2°49.853 -999 -999 -999  
2002-02-28 07:51:47 51°18.275 2°49.853 -999 -999 -999  
2002-02-28 07:51:52 51°18.275 2°49.853 -999 -999 -999  
2002-02-28 07:51:57 51°18.275 2°49.853 -999 -999 -999  
2002-02-28 07:52:02 51°18.276 2°49.853 -999 -999 -999  
2002-02-28 07:52:07 51°18.276 2°49.853 -999 -999 -999  
2002-02-28 07:52:12 51°18.275 2°49.853 -999 -999 -999  
2002-02-28 07:52:17 51°18.275 2°49.852 -999 -999 -999  
2002-02-28 07:52:22 51°18.275 2°49.852 -999 -999 -999  
2002-02-28 07:52:27 51°18.275 2°49.852 -999 -999 -999  
2002-02-28 07:52:32 51°18.275 2°49.852 -999 -999 -999  
2002-02-28 07:52:37 51°18.275 2°49.852 -999 -999 -999  
2002-02-28 07:52:42 51°18.276 2°49.852 -999 -999 -999  
2002-02-28 07:52:47 51°18.276 2°49.851 -999 -999 -999  
2002-02-28 07:52:52 51°18.276 2°49.851 -999 -999 -999  
2002-02-28 07:52:57 51°18.276 2°49.851 -999 -999 -999  
2002-02-28 07:53:02 51°18.276 2°49.851 -999 -999 -999  
2002-02-28 07:53:07 51°18.276 2°49.851 -999 -999 -999  
2002-02-28 07:53:12 51°18.276 2°49.851 -999 -999 -999  
2002-02-28 07:53:17 51°18.276 2°49.85 -999 -999 -999  
2002-02-28 07:53:21 51°18.276 2°49.85 -999 -999 -999  
2002-02-28 07:53:27 51°18.276 2°49.85 -999 -999 -999  
2002-02-28 07:53:31 51°18.276 2°49.85 -999 -999 -999  
2002-02-28 07:53:37 51°18.276 2°49.85 -999 -999 -999  
2002-02-28 07:53:42 51°18.276 2°49.849 -999 -999 -999  
2002-02-28 07:53:47 51°18.277 2°49.849 -999 -999 -999  
2002-02-28 07:53:51 51°18.276 2°49.849 -999 -999 -999  
2002-02-28 07:53:57 51°18.276 2°49.849 -999 -999 -999  
2002-02-28 07:54:02 51°18.277 2°49.85 -999 -999 -999  
2002-02-28 07:54:07 51°18.277 2°49.849 -999 -999 -999  
2002-02-28 07:54:12 51°18.277 2°49.849 -999 -999 -999  
2002-02-28 07:54:17 51°18.276 2°49.849 -999 -999 -999  
2002-02-28 07:54:22 51°18.276 2°49.848 -999 -999 -999  
2002-02-28 07:54:27 51°18.277 2°49.849 -999 -999 -999  
2002-02-28 07:54:32 51°18.277 2°49.849 -999 -999 -999  
2002-02-28 07:54:37 51°18.277 2°49.848 -999 -999 -999  
2002-02-28 07:54:42 51°18.277 2°49.849 -999 -999 -999  
2002-02-28 07:54:47 51°18.276 2°49.848 -999 -999 -999  
2002-02-28 07:54:52 51°18.277 2°49.848 -999 -999 -999  
2002-02-28 07:54:57 51°18.277 2°49.848 -999 -999 -999  
2002-02-28 07:55:02 51°18.277 2°49.848 -999 -999 -999  
2002-02-28 07:55:07 51°18.277 2°49.847 -999 -999 -999  
2002-02-28 07:55:12 51°18.277 2°49.847 -999 -999 -999  
2002-02-28 07:55:17 51°18.276 2°49.847 -999 -999 -999  
2002-02-28 07:55:22 51°18.277 2°49.847 -999 -999 -999  
2002-02-28 07:55:27 51°18.276 2°49.847 -999 -999 -999  
2002-02-28 07:55:31 51°18.276 2°49.847 -999 -999 -999  
2002-02-28 07:55:37 51°18.276 2°49.847 -999 -999 -999  
2002-02-28 07:55:42 51°18.276 2°49.847 -999 -999 -999  
2002-02-28 07:55:47 51°18.277 2°49.847 -999 -999 -999  
2002-02-28 07:55:52 51°18.277 2°49.847 -999 -999 -999  
2002-02-28 07:55:57 51°18.277 2°49.847 -999 -999 -999  
2002-02-28 07:56:02 51°18.276 2°49.847 -999 -999 -999  
2002-02-28 07:56:07 51°18.277 2°49.847 -999 -999 -999  
2002-02-28 07:56:12 51°18.277 2°49.846 -999 -999 -999  
2002-02-28 07:56:17 51°18.276 2°49.846 -999 -999 -999  
2002-02-28 07:56:22 51°18.276 2°49.846 -999 -999 -999  
2002-02-28 07:56:27 51°18.276 2°49.846 -999 -999 -999  
2002-02-28 07:56:32 51°18.276 2°49.845 -999 -999 -999  
2002-02-28 07:56:37 51°18.276 2°49.845 -999 -999 -999  
2002-02-28 07:56:42 51°18.276 2°49.845 -999 -999 -999  
2002-02-28 07:56:47 51°18.276 2°49.844 -999 -999 -999  
2002-02-28 07:56:52 51°18.276 2°49.844 -999 -999 -999  
2002-02-28 07:56:57 51°18.276 2°49.844 -999 -999 -999  
2002-02-28 07:57:02 51°18.276 2°49.843 -999 -999 -999  
2002-02-28 07:57:07 51°18.276 2°49.843 -999 -999 -999  
2002-02-28 07:57:12 51°18.276 2°49.843 -999 -999 -999  
2002-02-28 07:57:18 51°18.276 2°49.843 -999 -999 -999  
2002-02-28 07:57:22 51°18.276 2°49.842 -999 -999 -999  
2002-02-28 07:57:27 51°18.276 2°49.842 -999 -999 -999  
2002-02-28 07:57:32 51°18.276 2°49.842 -999 -999 -999  
2002-02-28 07:57:37 51°18.276 2°49.842 -999 -999 -999  
2002-02-28 07:57:42 51°18.277 2°49.842 -999 -999 -999  
2002-02-28 07:57:47 51°18.277 2°49.841 -999 -999 -999  
2002-02-28 07:57:52 51°18.277 2°49.841 -999 -999 -999  
2002-02-28 07:57:57 51°18.277 2°49.841 -999 -999 -999  
2002-02-28 07:58:01 51°18.277 2°49.841 -999 -999 -999  
2002-02-28 07:58:07 51°18.277 2°49.841 -999 -999 -999  
2002-02-28 07:58:12 51°18.277 2°49.841 -999 -999 -999  
2002-02-28 07:58:17 51°18.278 2°49.841 -999 -999 -999  
2002-02-28 07:58:22 51°18.278 2°49.841 -999 -999 -999  
2002-02-28 07:58:27 51°18.278 2°49.84 -999 -999 -999  
2002-02-28 07:58:32 51°18.278 2°49.84 -999 -999 -999  
2002-02-28 07:58:37 51°18.278 2°49.84 -999 -999 -999  
2002-02-28 07:58:42 51°18.278 2°49.84 -999 -999 -999  
2002-02-28 07:58:47 51°18.278 2°49.839 -999 -999 -999  
2002-02-28 07:58:52 51°18.278 2°49.839 -999 -999 -999  
2002-02-28 07:58:57 51°18.278 2°49.839 -999 -999 -999  
2002-02-28 07:59:02 51°18.278 2°49.839 -999 -999 -999  
2002-02-28 07:59:07 51°18.278 2°49.838 -999 -999 -999  
2002-02-28 07:59:12 51°18.278 2°49.838 -999 -999 -999  
2002-02-28 07:59:17 51°18.278 2°49.838 -999 -999 -999  
2002-02-28 07:59:22 51°18.278 2°49.838 -999 -999 -999  
2002-02-28 07:59:27 51°18.278 2°49.838 -999 -999 -999  
2002-02-28 07:59:32 51°18.278 2°49.838 -999 -999 -999  
2002-02-28 07:59:37 51°18.278 2°49.837 -999 -999 -999  
2002-02-28 07:59:42 51°18.278 2°49.837 -999 -999 -999  
2002-02-28 07:59:47 51°18.278 2°49.837 -999 -999 -999  
2002-02-28 07:59:52 51°18.278 2°49.837 -999 -999 -999  
2002-02-28 07:59:57 51°18.278 2°49.837 -999 -999 -999  
2002-02-28 08:00:02 51°18.278 2°49.836 -999 -999 -999  
2002-02-28 08:00:07 51°18.278 2°49.836 -999 -999 -999  
2002-02-28 08:00:12 51°18.278 2°49.836 -999 -999 -999  
2002-02-28 08:00:17 51°18.278 2°49.835 -999 -999 -999  
2002-02-28 08:00:22 51°18.278 2°49.835 -999 -999 -999  
2002-02-28 08:00:27 51°18.278 2°49.835 -999 -999 -999  
2002-02-28 08:00:32 51°18.277 2°49.835 -999 -999 -999  
2002-02-28 08:00:37 51°18.277 2°49.835 -999 -999 -999  
2002-02-28 08:00:42 51°18.277 2°49.835 -999 -999 -999  
2002-02-28 08:00:47 51°18.276 2°49.835 -999 -999 -999  
2002-02-28 08:00:52 51°18.276 2°49.835 -999 -999 -999  
2002-02-28 08:00:57 51°18.276 2°49.835 -999 -999 -999  
2002-02-28 08:01:02 51°18.276 2°49.836 -999 -999 -999  
2002-02-28 08:01:07 51°18.275 2°49.836 -999 -999 -999  
2002-02-28 08:01:12 51°18.275 2°49.836 -999 -999 -999  
2002-02-28 08:01:17 51°18.275 2°49.836 -999 -999 -999  
2002-02-28 08:01:22 51°18.275 2°49.837 -999 -999 -999  
2002-02-28 08:01:27 51°18.275 2°49.837 -999 -999 -999  
2002-02-28 08:01:32 51°18.274 2°49.837 -999 -999 -999  
2002-02-28 08:01:37 51°18.274 2°49.838 -999 -999 -999  
2002-02-28 08:01:42 51°18.274 2°49.837 -999 -999 -999  
2002-02-28 08:01:47 51°18.274 2°49.838 -999 -999 -999  
2002-02-28 08:01:52 51°18.274 2°49.838 -999 -999 -999  
2002-02-28 08:01:57 51°18.273 2°49.838 -999 -999 -999  
2002-02-28 08:02:02 51°18.273 2°49.838 -999 -999 -999  
2002-02-28 08:02:07 51°18.273 2°49.838 -999 -999 -999  
2002-02-28 08:02:12 51°18.272 2°49.838 -999 -999 -999  
2002-02-28 08:02:17 51°18.272 2°49.838 -999 -999 -999  
2002-02-28 08:02:22 51°18.273 2°49.838 -999 -999 -999  
2002-02-28 08:02:27 51°18.272 2°49.838 -999 -999 -999  
2002-02-28 08:02:32 51°18.273 2°49.838 -999 -999 -999  
2002-02-28 08:02:37 51°18.272 2°49.838 -999 -999 -999  
2002-02-28 08:02:42 51°18.272 2°49.838 -999 -999 -999  
2002-02-28 08:02:47 51°18.272 2°49.838 -999 -999 -999  
2002-02-28 08:02:52 51°18.272 2°49.838 -999 -999 -999  
2002-02-28 08:02:57 51°18.272 2°49.838 -999 -999 -999  
2002-02-28 08:03:02 51°18.272 2°49.838 -999 -999 -999  
2002-02-28 08:03:07 51°18.272 2°49.838 -999 -999 -999  
2002-02-28 08:03:12 51°18.272 2°49.838 -999 -999 -999  
2002-02-28 08:03:17 51°18.272 2°49.838 -999 -999 -999  
2002-02-28 08:03:22 51°18.272 2°49.838 -999 -999 -999  
2002-02-28 08:03:27 51°18.272 2°49.837 -999 -999 -999  
2002-02-28 08:03:32 51°18.272 2°49.837 -999 -999 -999  
2002-02-28 08:03:37 51°18.272 2°49.837 -999 -999 -999  
2002-02-28 08:03:42 51°18.272 2°49.836 -999 -999 -999  
2002-02-28 08:03:47 51°18.272 2°49.836 -999 -999 -999  
2002-02-28 08:03:52 51°18.271 2°49.836 -999 -999 -999  
2002-02-28 08:03:57 51°18.271 2°49.836 -999 -999 -999  
2002-02-28 08:04:02 51°18.271 2°49.835 -999 -999 -999  
2002-02-28 08:04:07 51°18.27 2°49.836 -999 -999 -999  
2002-02-28 08:04:12 51°18.27 2°49.835 -999 -999 -999  
2002-02-28 08:04:17 51°18.27 2°49.835 -999 -999 -999  
2002-02-28 08:04:22 51°18.27 2°49.834 -999 -999 -999  
2002-02-28 08:04:27 51°18.27 2°49.834 -999 -999 -999  
2002-02-28 08:04:32 51°18.27 2°49.834 -999 -999 -999  
2002-02-28 08:04:37 51°18.27 2°49.834 -999 -999 -999  
2002-02-28 08:04:42 51°18.27 2°49.833 -999 -999 -999  
2002-02-28 08:04:47 51°18.27 2°49.833 -999 -999 -999  
2002-02-28 08:04:52 51°18.27 2°49.833 -999 -999 -999  
2002-02-28 08:04:57 51°18.27 2°49.833 -999 -999 -999  
2002-02-28 08:05:02 51°18.27 2°49.832 -999 -999 -999  
2002-02-28 08:05:07 51°18.271 2°49.832 -999 -999 -999  
2002-02-28 08:05:12 51°18.271 2°49.832 -999 -999 -999  
2002-02-28 08:05:17 51°18.27 2°49.831 -999 -999 -999  
2002-02-28 08:05:22 51°18.27 2°49.831 -999 -999 -999  
2002-02-28 08:05:27 51°18.271 2°49.831 -999 -999 -999  
2002-02-28 08:05:32 51°18.271 2°49.83 -999 -999 -999  
2002-02-28 08:05:37 51°18.271 2°49.83 -999 -999 -999  
2002-02-28 08:05:42 51°18.271 2°49.829 -999 -999 -999  
2002-02-28 08:05:47 51°18.271 2°49.829 -999 -999 -999  
2002-02-28 08:05:52 51°18.271 2°49.829 -999 -999 -999  
2002-02-28 08:05:57 51°18.271 2°49.828 -999 -999 -999  
2002-02-28 08:06:02 51°18.272 2°49.828 -999 -999 -999  
2002-02-28 08:06:07 51°18.272 2°49.827 -999 -999 -999  
2002-02-28 08:06:12 51°18.272 2°49.827 -999 -999 -999  
2002-02-28 08:06:17 51°18.272 2°49.827 -999 -999 -999  
2002-02-28 08:06:22 51°18.272 2°49.826 -999 -999 -999  
2002-02-28 08:06:27 51°18.273 2°49.825 -999 -999 -999  
2002-02-28 08:06:32 51°18.273 2°49.825 -999 -999 -999  
2002-02-28 08:06:37 51°18.273 2°49.824 -999 -999 -999  
2002-02-28 08:06:42 51°18.273 2°49.824 -999 -999 -999  
2002-02-28 08:06:47 51°18.274 2°49.823 -999 -999 -999  
2002-02-28 08:06:52 51°18.274 2°49.823 -999 -999 -999  
2002-02-28 08:06:57 51°18.274 2°49.823 -999 -999 -999  
2002-02-28 08:07:02 51°18.274 2°49.823 -999 -999 -999  
2002-02-28 08:07:07 51°18.275 2°49.822 -999 -999 -999  
2002-02-28 08:07:12 51°18.275 2°49.822 -999 -999 -999  
2002-02-28 08:07:17 51°18.275 2°49.822 -999 -999 -999  
2002-02-28 08:07:22 51°18.275 2°49.822 -999 -999 -999  
2002-02-28 08:07:27 51°18.275 2°49.821 -999 -999 -999  
2002-02-28 08:07:32 51°18.276 2°49.821 -999 -999 -999  
2002-02-28 08:07:37 51°18.276 2°49.821 -999 -999 -999  
2002-02-28 08:07:42 51°18.276 2°49.821 -999 -999 -999  
2002-02-28 08:07:47 51°18.276 2°49.821 -999 -999 -999  
2002-02-28 08:07:52 51°18.276 2°49.821 -999 -999 -999  
2002-02-28 08:07:57 51°18.276 2°49.821 -999 -999 -999  
2002-02-28 08:08:02 51°18.276 2°49.821 -999 -999 -999  
2002-02-28 08:08:07 51°18.276 2°49.821 -999 -999 -999  
2002-02-28 08:08:12 51°18.276 2°49.821 -999 -999 -999  
2002-02-28 08:08:17 51°18.276 2°49.821 -999 -999 -999  
2002-02-28 08:08:22 51°18.276 2°49.821 -999 -999 -999  
2002-02-28 08:08:27 51°18.276 2°49.822 -999 -999 -999  
2002-02-28 08:08:31 51°18.275 2°49.821 -999 -999 -999  
2002-02-28 08:08:37 51°18.276 2°49.822 -999 -999 -999  
2002-02-28 08:08:42 51°18.275 2°49.822 -999 -999 -999  
2002-02-28 08:08:47 51°18.275 2°49.822 -999 -999 -999  
2002-02-28 08:08:52 51°18.275 2°49.822 -999 -999 -999  
2002-02-28 08:08:57 51°18.275 2°49.823 -999 -999 -999  
2002-02-28 08:09:02 51°18.275 2°49.822 -999 -999 -999  
2002-02-28 08:09:07 51°18.275 2°49.824 -999 -999 -999  
2002-02-28 08:09:12 51°18.276 2°49.825 -999 -999 -999  
2002-02-28 08:09:17 51°18.275 2°49.825 -999 -999 -999  
2002-02-28 08:09:22 51°18.275 2°49.826 -999 -999 -999  
2002-02-28 08:09:27 51°18.275 2°49.826 -999 -999 -999  
2002-02-28 08:09:32 51°18.274 2°49.826 -999 -999 -999  
2002-02-28 08:09:37 51°18.273 2°49.826 -999 -999 -999  
2002-02-28 08:09:42 51°18.273 2°49.827 -999 -999 -999  
2002-02-28 08:09:47 51°18.273 2°49.827 -999 -999 -999  
2002-02-28 08:09:52 51°18.273 2°49.827 -999 -999 -999  
2002-02-28 08:09:57 51°18.273 2°49.828 -999 -999 -999  
2002-02-28 08:10:02 51°18.273 2°49.828 -999 -999 -999  
2002-02-28 08:10:07 51°18.273 2°49.829 -999 -999 -999  
2002-02-28 08:10:12 51°18.272 2°49.829 -999 -999 -999  
2002-02-28 08:10:17 51°18.272 2°49.829 -999 -999 -999  
2002-02-28 08:10:22 51°18.272 2°49.829 -999 -999 -999  
2002-02-28 08:10:27 51°18.272 2°49.829 -999 -999 -999  
2002-02-28 08:10:32 51°18.272 2°49.829 -999 -999 -999  
2002-02-28 08:10:37 51°18.271 2°49.829 -999 -999 -999  
2002-02-28 08:10:42 51°18.271 2°49.83 -999 -999 -999  
2002-02-28 08:10:47 51°18.272 2°49.83 -999 -999 -999  
2002-02-28 08:10:52 51°18.271 2°49.83 -999 -999 -999  
2002-02-28 08:10:57 51°18.271 2°49.83 -999 -999 -999  
2002-02-28 08:11:02 51°18.271 2°49.83 -999 -999 -999  
2002-02-28 08:11:07 51°18.271 2°49.83 -999 -999 -999  
2002-02-28 08:11:12 51°18.271 2°49.83 -999 -999 -999  
2002-02-28 08:11:18 51°18.271 2°49.83 -999 -999 -999  
2002-02-28 08:11:22 51°18.271 2°49.83 -999 -999 -999  
2002-02-28 08:11:27 51°18.271 2°49.83 -999 -999 -999  
2002-02-28 08:11:32 51°18.271 2°49.829 -999 -999 -999  
2002-02-28 08:11:37 51°18.271 2°49.829 -999 -999 -999  
2002-02-28 08:11:42 51°18.27 2°49.828 -999 -999 -999  
2002-02-28 08:11:48 51°18.271 2°49.828 -999 -999 -999  
2002-02-28 08:11:52 51°18.271 2°49.827 -999 -999 -999  
2002-02-28 08:11:57 51°18.271 2°49.827 -999 -999 -999  
2002-02-28 08:12:02 51°18.271 2°49.827 -999 -999 -999  
2002-02-28 08:12:07 51°18.271 2°49.827 -999 -999 -999  
2002-02-28 08:12:12 51°18.271 2°49.826 -999 -999 -999  
2002-02-28 08:12:17 51°18.271 2°49.826 -999 -999 -999  
2002-02-28 08:12:22 51°18.271 2°49.826 -999 -999 -999  
2002-02-28 08:12:27 51°18.271 2°49.825 -999 -999 -999  
2002-02-28 08:12:32 51°18.271 2°49.824 -999 -999 -999  
2002-02-28 08:12:37 51°18.272 2°49.824 -999 -999 -999  
2002-02-28 08:12:42 51°18.272 2°49.823 -999 -999 -999  
2002-02-28 08:12:47 51°18.272 2°49.823 -999 -999 -999  
2002-02-28 08:12:52 51°18.272 2°49.823 -999 -999 -999  
2002-02-28 08:12:57 51°18.272 2°49.822 -999 -999 -999  
2002-02-28 08:13:02 51°18.272 2°49.822 -999 -999 -999  
2002-02-28 08:13:07 51°18.273 2°49.821 -999 -999 -999  
2002-02-28 08:13:11 51°18.273 2°49.821 -999 -999 -999  
2002-02-28 08:13:17 51°18.273 2°49.821 -999 -999 -999  
2002-02-28 08:13:22 51°18.273 2°49.821 -999 -999 -999  
2002-02-28 08:13:27 51°18.273 2°49.821 -999 -999 -999  
2002-02-28 08:13:32 51°18.273 2°49.821 -999 -999 -999  
2002-02-28 08:13:38 51°18.273 2°49.821 -999 -999 -999  
2002-02-28 08:13:42 51°18.274 2°49.821 -999 -999 -999  
2002-02-28 08:13:47 51°18.273 2°49.82 -999 -999 -999  
2002-02-28 08:13:52 51°18.274 2°49.821 -999 -999 -999  
2002-02-28 08:13:57 51°18.274 2°49.821 -999 -999 -999  
2002-02-28 08:14:02 51°18.273 2°49.821 -999 -999 -999  
2002-02-28 08:14:07 51°18.274 2°49.82 -999 -999 -999  
2002-02-28 08:14:12 51°18.274 2°49.82 -999 -999 -999  
2002-02-28 08:14:17 51°18.274 2°49.82 -999 -999 -999  
2002-02-28 08:14:22 51°18.274 2°49.82 -999 -999 -999  
2002-02-28 08:14:27 51°18.274 2°49.82 -999 -999 -999  
2002-02-28 08:14:32 51°18.274 2°49.82 -999 -999 -999  
2002-02-28 08:14:37 51°18.274 2°49.82 -999 -999 -999  
2002-02-28 08:14:42 51°18.274 2°49.82 -999 -999 -999  
2002-02-28 08:14:47 51°18.274 2°49.82 -999 -999 -999  
2002-02-28 08:14:52 51°18.274 2°49.82 -999 -999 -999  
2002-02-28 08:14:57 51°18.274 2°49.82 -999 -999 -999  
2002-02-28 08:15:02 51°18.274 2°49.82 -999 -999 -999  
2002-02-28 08:15:07 51°18.274 2°49.82 -999 -999 -999  
2002-02-28 08:15:12 51°18.274 2°49.82 -999 -999 -999  
2002-02-28 08:15:17 51°18.273 2°49.82 -999 -999 -999  
2002-02-28 08:15:22 51°18.274 2°49.821 -999 -999 -999  
2002-02-28 08:15:27 51°18.274 2°49.821 -999 -999 -999  
2002-02-28 08:15:32 51°18.274 2°49.821 -999 -999 -999  
2002-02-28 08:15:37 51°18.274 2°49.821 -999 -999 -999  
2002-02-28 08:15:42 51°18.273 2°49.82 -999 -999 -999  
2002-02-28 08:15:47 51°18.273 2°49.82 -999 -999 -999  
2002-02-28 08:15:52 51°18.272 2°49.82 -999 -999 -999  
2002-02-28 08:15:57 51°18.272 2°49.82 -999 -999 -999  
2002-02-28 08:16:02 51°18.271 2°49.82 -999 -999 -999  
2002-02-28 08:16:07 51°18.272 2°49.821 -999 -999 -999  
2002-02-28 08:16:12 51°18.271 2°49.82 -999 -999 -999  
2002-02-28 08:16:17 51°18.271 2°49.821 -999 -999 -999  
2002-02-28 08:16:22 51°18.271 2°49.821 -999 -999 -999  
2002-02-28 08:16:27 51°18.271 2°49.822 -999 -999 -999  
2002-02-28 08:16:32 51°18.271 2°49.821 -999 -999 -999  
2002-02-28 08:16:37 51°18.271 2°49.822 -999 -999 -999  
2002-02-28 08:16:42 51°18.271 2°49.822 -999 -999 -999  
2002-02-28 08:16:47 51°18.271 2°49.823 -999 -999 -999  
2002-02-28 08:16:52 51°18.271 2°49.823 -999 -999 -999  
2002-02-28 08:16:57 51°18.271 2°49.823 -999 -999 -999  
2002-02-28 08:17:02 51°18.271 2°49.823 -999 -999 -999  
2002-02-28 08:17:07 51°18.271 2°49.823 -999 -999 -999  
2002-02-28 08:17:12 51°18.271 2°49.824 -999 -999 -999  
2002-02-28 08:17:17 51°18.271 2°49.824 -999 -999 -999  
2002-02-28 08:17:22 51°18.271 2°49.824 -999 -999 -999  
2002-02-28 08:17:27 51°18.271 2°49.824 -999 -999 -999  
2002-02-28 08:17:32 51°18.271 2°49.823 -999 -999 -999  
2002-02-28 08:17:37 51°18.271 2°49.824 -999 -999 -999  
2002-02-28 08:17:42 51°18.271 2°49.824 -999 -999 -999  
2002-02-28 08:17:47 51°18.272 2°49.824 -999 -999 -999  
2002-02-28 08:17:52 51°18.271 2°49.823 -999 -999 -999  
2002-02-28 08:17:57 51°18.271 2°49.823 -999 -999 -999  
2002-02-28 08:18:02 51°18.271 2°49.823 -999 -999 -999  
2002-02-28 08:18:07 51°18.271 2°49.823 -999 -999 -999  
2002-02-28 08:18:12 51°18.271 2°49.822 -999 -999 -999  
2002-02-28 08:18:17 51°18.271 2°49.822 -999 -999 -999  
2002-02-28 08:18:22 51°18.27 2°49.821 -999 -999 -999  
2002-02-28 08:18:27 51°18.27 2°49.821 -999 -999 -999  
2002-02-28 08:18:32 51°18.27 2°49.821 -999 -999 -999  
2002-02-28 08:18:37 51°18.27 2°49.82 -999 -999 -999  
2002-02-28 08:18:42 51°18.27 2°49.82 -999 -999 -999  
2002-02-28 08:18:47 51°18.271 2°49.82 -999 -999 -999  
2002-02-28 08:18:52 51°18.27 2°49.819 -999 -999 -999  
2002-02-28 08:18:57 51°18.271 2°49.818 -999 -999 -999  
2002-02-28 08:19:02 51°18.271 2°49.818 -999 -999 -999  
2002-02-28 08:19:07 51°18.271 2°49.818 -999 -999 -999  
2002-02-28 08:19:12 51°18.272 2°49.817 -999 -999 -999  
2002-02-28 08:19:17 51°18.272 2°49.817 -999 -999 -999  
2002-02-28 08:19:22 51°18.272 2°49.816 -999 -999 -999  
2002-02-28 08:19:27 51°18.272 2°49.816 -999 -999 -999  
2002-02-28 08:19:32 51°18.273 2°49.815 -999 -999 -999  
2002-02-28 08:19:37 51°18.272 2°49.815 -999 -999 -999  
2002-02-28 08:19:42 51°18.272 2°49.815 -999 -999 -999  
2002-02-28 08:19:47 51°18.272 2°49.815 -999 -999 -999  
2002-02-28 08:19:52 51°18.273 2°49.815 -999 -999 -999  
2002-02-28 08:19:57 51°18.273 2°49.815 -999 -999 -999  
2002-02-28 08:20:02 51°18.273 2°49.815 -999 -999 -999  
2002-02-28 08:20:07 51°18.273 2°49.814 -999 -999 -999  
2002-02-28 08:20:12 51°18.273 2°49.814 -999 -999 -999  
2002-02-28 08:20:17 51°18.273 2°49.814 -999 -999 -999  
2002-02-28 08:20:22 51°18.273 2°49.814 -999 -999 -999  
2002-02-28 08:20:27 51°18.273 2°49.814 -999 -999 -999  
2002-02-28 08:20:32 51°18.273 2°49.813 -999 -999 -999  
2002-02-28 08:20:37 51°18.273 2°49.814 -999 -999 -999  
2002-02-28 08:20:42 51°18.273 2°49.814 -999 -999 -999  
2002-02-28 08:20:47 51°18.274 2°49.813 -999 -999 -999  
2002-02-28 08:20:52 51°18.274 2°49.814 -999 -999 -999  
2002-02-28 08:20:57 51°18.274 2°49.813 -999 -999 -999  
2002-02-28 08:21:02 51°18.274 2°49.814 -999 -999 -999  
2002-02-28 08:21:07 51°18.274 2°49.814 -999 -999 -999  
2002-02-28 08:21:12 51°18.274 2°49.814 -999 -999 -999  
2002-02-28 08:21:17 51°18.274 2°49.814 -999 -999 -999  
2002-02-28 08:21:22 51°18.274 2°49.815 -999 -999 -999  
2002-02-28 08:21:27 51°18.274 2°49.815 -999 -999 -999  
2002-02-28 08:21:32 51°18.274 2°49.815 -999 -999 -999  
2002-02-28 08:21:37 51°18.274 2°49.815 -999 -999 -999  
2002-02-28 08:21:42 51°18.274 2°49.815 -999 -999 -999  
2002-02-28 08:21:47 51°18.274 2°49.814 -999 -999 -999  
2002-02-28 08:21:52 51°18.274 2°49.814 -999 -999 -999  
2002-02-28 08:21:57 51°18.274 2°49.814 -999 -999 -999  
2002-02-28 08:22:02 51°18.274 2°49.815 -999 -999 -999  
2002-02-28 08:22:07 51°18.273 2°49.815 -999 -999 -999  
2002-02-28 08:22:12 51°18.273 2°49.815 -999 -999 -999  
2002-02-28 08:22:17 51°18.273 2°49.815 -999 -999 -999  
2002-02-28 08:22:22 51°18.272 2°49.815 -999 -999 -999  
2002-02-28 08:22:27 51°18.272 2°49.815 -999 -999 -999  
2002-02-28 08:22:32 51°18.272 2°49.815 -999 -999 -999  
2002-02-28 08:22:37 51°18.271 2°49.815 -999 -999 -999  
2002-02-28 08:22:42 51°18.271 2°49.815 -999 -999 -999  
2002-02-28 08:22:47 51°18.271 2°49.815 -999 -999 -999  
2002-02-28 08:22:52 51°18.271 2°49.814 -999 -999 -999  
2002-02-28 08:22:57 51°18.271 2°49.814 -999 -999 -999  
2002-02-28 08:23:02 51°18.271 2°49.814 -999 -999 -999  
2002-02-28 08:23:07 51°18.271 2°49.814 -999 -999 -999  
2002-02-28 08:23:12 51°18.271 2°49.814 -999 -999 -999  
2002-02-28 08:23:17 51°18.271 2°49.814 -999 -999 -999  
2002-02-28 08:23:22 51°18.271 2°49.814 -999 -999 -999  
2002-02-28 08:23:27 51°18.271 2°49.814 -999 -999 -999  
2002-02-28 08:23:32 51°18.271 2°49.814 -999 -999 -999  
2002-02-28 08:23:37 51°18.271 2°49.814 -999 -999 -999  
2002-02-28 08:23:42 51°18.271 2°49.815 -999 -999 -999  
2002-02-28 08:23:47 51°18.27 2°49.814 -999 -999 -999  
2002-02-28 08:23:52 51°18.27 2°49.814 -999 -999 -999  
2002-02-28 08:23:57 51°18.27 2°49.814 -999 -999 -999  
2002-02-28 08:24:02 51°18.271 2°49.814 -999 -999 -999  
2002-02-28 08:24:07 51°18.271 2°49.814 -999 -999 -999  
2002-02-28 08:24:12 51°18.271 2°49.814 -999 -999 -999  
2002-02-28 08:24:17 51°18.271 2°49.814 -999 -999 -999  
2002-02-28 08:24:22 51°18.271 2°49.814 -999 -999 -999  
2002-02-28 08:24:27 51°18.271 2°49.814 -999 -999 -999  
2002-02-28 08:24:32 51°18.271 2°49.813 -999 -999 -999  
2002-02-28 08:24:37 51°18.271 2°49.813 -999 -999 -999  
2002-02-28 08:24:42 51°18.271 2°49.813 -999 -999 -999  
2002-02-28 08:24:47 51°18.271 2°49.812 -999 -999 -999  
2002-02-28 08:24:52 51°18.271 2°49.812 -999 -999 -999  
2002-02-28 08:24:57 51°18.271 2°49.812 -999 -999 -999  
2002-02-28 08:25:02 51°18.271 2°49.812 -999 -999 -999  
2002-02-28 08:25:07 51°18.271 2°49.812 -999 -999 -999  
2002-02-28 08:25:12 51°18.271 2°49.812 -999 -999 -999  
2002-02-28 08:25:17 51°18.271 2°49.812 -999 -999 -999  
2002-02-28 08:25:22 51°18.271 2°49.811 -999 -999 -999  
2002-02-28 08:25:27 51°18.271 2°49.811 -999 -999 -999  
2002-02-28 08:25:32 51°18.271 2°49.811 -999 -999 -999  
2002-02-28 08:25:37 51°18.272 2°49.811 -999 -999 -999  
2002-02-28 08:25:42 51°18.272 2°49.81 -999 -999 -999  
2002-02-28 08:25:47 51°18.272 2°49.81 -999 -999 -999  
2002-02-28 08:25:52 51°18.272 2°49.81 -999 -999 -999  
2002-02-28 08:25:57 51°18.272 2°49.809 -999 -999 -999  
2002-02-28 08:26:02 51°18.272 2°49.809 -999 -999 -999  
2002-02-28 08:26:07 51°18.272 2°49.809 -999 -999 -999  
2002-02-28 08:26:11 51°18.272 2°49.809 -999 -999 -999  
2002-02-28 08:26:17 51°18.272 2°49.809 -999 -999 -999  
2002-02-28 08:26:22 51°18.272 2°49.809 -999 -999 -999  
2002-02-28 08:26:27 51°18.272 2°49.809 -999 -999 -999  
2002-02-28 08:26:32 51°18.273 2°49.809 -999 -999 -999  
2002-02-28 08:26:37 51°18.272 2°49.808 -999 -999 -999  
2002-02-28 08:26:42 51°18.273 2°49.808 -999 -999 -999  
2002-02-28 08:26:47 51°18.273 2°49.807 -999 -999 -999  
2002-02-28 08:26:52 51°18.273 2°49.807 -999 -999 -999  
2002-02-28 08:26:57 51°18.273 2°49.808 -999 -999 -999  
2002-02-28 08:27:02 51°18.272 2°49.807 -999 -999 -999  
2002-02-28 08:27:07 51°18.272 2°49.807 -999 -999 -999  
2002-02-28 08:27:12 51°18.273 2°49.807 -999 -999 -999  
2002-02-28 08:27:17 51°18.273 2°49.807 -999 -999 -999  
2002-02-28 08:27:22 51°18.273 2°49.807 -999 -999 -999  
2002-02-28 08:27:27 51°18.272 2°49.807 -999 -999 -999  
2002-02-28 08:27:32 51°18.272 2°49.807 -999 -999 -999  
2002-02-28 08:27:37 51°18.272 2°49.806 -999 -999 -999  
2002-02-28 08:27:42 51°18.272 2°49.807 -999 -999 -999  
2002-02-28 08:27:47 51°18.272 2°49.806 -999 -999 -999  
2002-02-28 08:27:51 51°18.272 2°49.806 -999 -999 -999  
2002-02-28 08:27:57 51°18.272 2°49.806 -999 -999 -999  
2002-02-28 08:28:02 51°18.272 2°49.806 -999 -999 -999  
2002-02-28 08:28:07 51°18.272 2°49.806 -999 -999 -999  
2002-02-28 08:28:12 51°18.272 2°49.806 -999 -999 -999  
2002-02-28 08:28:17 51°18.271 2°49.806 -999 -999 -999